Terminal Aerodrome Forecast
Issued by NWS

Home | Current Version | Previous Version | Text Only | Print | Product List | Glossary On
Versions: 1 2 3 4 5 6 7 8 9 10 11 12 13 14 15
000
FTUS45 KGJT 241740
TAFCNY
TAF
KCNY 241740Z 2418/2518 VRB04KT P6SM FEW110 SCT250
     FM242100 21008KT P6SM VCTS SCT110CB BKN150
     FM250200 17009KT P6SM VCSH SCT110 OVC130
     FM250600 16005KT P6SM VCSH BKN090
     FM251200 VRB03KT P6SM VCSH SCT070 OVC090=

USA.gov is the U.S. government's official web portal to all federal, state and local government web resources and services.